createdAt,value
2017-02-17T00:00:07.911Z,1004.68
2017-02-17T00:01:07.758Z,1004.68
2017-02-17T00:02:07.858Z,1004.69
2017-02-17T00:03:07.815Z,1004.69
2017-02-17T00:04:08.003Z,1004.69
2017-02-17T00:05:08.190Z,1004.66
2017-02-17T00:06:08.150Z,1004.62
2017-02-17T00:07:07.926Z,1004.61
2017-02-17T00:08:07.954Z,1004.6
2017-02-17T00:09:07.984Z,1004.64
2017-02-17T00:10:08.200Z,1004.64
2017-02-17T00:11:08.034Z,1004.67
2017-02-17T00:12:08.175Z,1004.7
2017-02-17T00:13:08.397Z,1004.66
2017-02-17T00:14:08.123Z,1004.65
2017-02-17T00:15:08.380Z,1004.62
2017-02-17T00:16:08.474Z,1004.65
2017-02-17T00:17:08.383Z,1004.66
2017-02-17T00:18:08.232Z,1004.6
2017-02-17T00:19:08.258Z,1004.61
2017-02-17T00:20:08.283Z,1004.61
2017-02-17T00:21:08.509Z,1004.61
2017-02-17T00:22:08.342Z,1004.68
2017-02-17T00:23:08.372Z,1004.57
2017-02-17T00:24:08.667Z,1004.58
2017-02-17T00:25:08.590Z,1004.53
2017-02-17T00:26:08.441Z,1004.57
2017-02-17T00:27:08.472Z,1004.56
2017-02-17T00:28:08.683Z,1004.54
2017-02-17T00:29:08.535Z,1004.55
2017-02-17T00:30:08.564Z,1004.54
2017-02-17T00:31:08.587Z,1004.55
2017-02-17T00:32:08.899Z,1004.57
2017-02-17T00:33:08.866Z,1004.57
2017-02-17T00:34:08.671Z,1004.56
2017-02-17T00:35:08.702Z,1004.57
2017-02-17T00:36:08.819Z,1004.61
2017-02-17T00:37:08.755Z,1004.61
2017-02-17T00:38:08.778Z,1004.59
2017-02-17T00:39:09.159Z,1004.62
2017-02-17T00:40:08.837Z,1004.61
2017-02-17T00:41:08.865Z,1004.54
2017-02-17T00:42:08.932Z,1004.53
2017-02-17T00:43:08.933Z,1004.55
2017-02-17T00:44:09.232Z,1004.56
2017-02-17T00:45:09.211Z,1004.5
2017-02-17T00:46:09.271Z,1004.53
2017-02-17T00:47:09.135Z,1004.47
2017-02-17T00:48:09.059Z,1004.46
2017-02-17T00:49:09.620Z,1004.44
2017-02-17T00:50:09.277Z,1004.46
2017-02-17T00:51:09.371Z,1004.46
2017-02-17T00:52:09.167Z,1004.45
2017-02-17T00:53:09.193Z,1004.51
2017-02-17T00:54:09.473Z,1004.46
2017-02-17T00:55:09.409Z,1004.44
2017-02-17T00:56:09.278Z,1004.46
2017-02-17T00:57:09.299Z,1004.48
2017-02-17T00:58:09.613Z,1004.49
2017-02-17T00:59:09.605Z,1004.5
2017-02-17T01:00:09.386Z,1004.47
2017-02-17T01:01:09.407Z,1004.46
2017-02-17T01:02:09.612Z,1004.45
2017-02-17T01:03:09.673Z,1004.45
2017-02-17T01:04:09.744Z,1004.45
2017-02-17T01:05:09.527Z,1004.44
2017-02-17T01:06:09.545Z,1004.51
2017-02-17T01:07:09.575Z,1004.44
2017-02-17T01:08:09.601Z,1004.42
2017-02-17T01:09:09.629Z,1004.43
2017-02-17T01:10:09.652Z,1004.4
2017-02-17T01:11:09.680Z,1004.4
2017-02-17T01:12:09.711Z,1004.35
2017-02-17T01:13:09.972Z,1004.37
2017-02-17T01:14:09.948Z,1004.33
2017-02-17T01:15:09.798Z,1004.34
2017-02-17T01:16:09.827Z,1004.31
2017-02-17T01:17:10.020Z,1004.29
2017-02-17T01:18:09.876Z,1004.29
2017-02-17T01:19:09.905Z,1004.32
2017-02-17T01:20:09.926Z,1004.28
2017-02-17T01:21:10.240Z,1004.31
2017-02-17T01:22:10.180Z,1004.28
2017-02-17T01:23:10.011Z,1004.34
2017-02-17T01:24:10.064Z,1004.34
2017-02-17T01:25:10.253Z,1004.35
2017-02-17T01:26:10.088Z,1004.33
2017-02-17T01:27:10.123Z,1004.31
2017-02-17T01:28:10.151Z,1004.34
2017-02-17T01:29:10.179Z,1004.35
2017-02-17T01:30:10.495Z,1004.35
2017-02-17T01:31:10.402Z,1004.36
2017-02-17T01:32:10.258Z,1004.33
2017-02-17T01:33:10.287Z,1004.35
2017-02-17T01:34:10.313Z,1004.31
2017-02-17T01:35:10.533Z,1004.29
2017-02-17T01:36:10.365Z,1004.34
2017-02-17T01:37:10.393Z,1004.31
2017-02-17T01:38:10.418Z,1004.3
2017-02-17T01:39:10.677Z,1004.32
2017-02-17T01:40:10.697Z,1004.29
2017-02-17T01:41:10.654Z,1004.32
2017-02-17T01:42:10.720Z,1004.29
2017-02-17T01:43:10.558Z,1004.3
2017-02-17T01:44:10.871Z,1004.32
2017-02-17T01:45:10.617Z,1004.3
2017-02-17T01:46:10.656Z,1004.33
2017-02-17T01:47:10.668Z,1004.37
2017-02-17T01:48:10.864Z,1004.36
2017-02-17T01:49:10.888Z,1004.34
2017-02-17T01:50:10.968Z,1004.34
2017-02-17T01:51:10.780Z,1004.37
2017-02-17T01:52:10.835Z,1004.34
2017-02-17T01:53:11.011Z,1004.31
2017-02-17T01:54:10.915Z,1004.29
2017-02-17T01:55:10.988Z,1004.31
2017-02-17T01:56:10.913Z,1004.31
2017-02-17T01:57:10.939Z,1004.28
2017-02-17T01:58:11.171Z,1004.28
2017-02-17T01:59:10.994Z,1004.34
2017-02-17T02:00:11.026Z,1004.37
2017-02-17T02:01:11.049Z,1004.4
2017-02-17T02:02:11.083Z,1004.38
2017-02-17T02:03:11.377Z,1004.44
2017-02-17T02:04:11.135Z,1004.4
2017-02-17T02:05:11.158Z,1004.38
2017-02-17T02:06:11.411Z,1004.38
2017-02-17T02:07:11.217Z,1004.36
2017-02-17T02:08:11.238Z,1004.37
2017-02-17T02:09:11.270Z,1004.37
2017-02-17T02:10:11.555Z,1004.36
2017-02-17T02:11:11.592Z,1004.31
2017-02-17T02:12:11.345Z,1004.3
2017-02-17T02:13:11.380Z,1004.3
2017-02-17T02:14:11.401Z,1004.29
2017-02-17T02:15:11.681Z,1004.22
2017-02-17T02:16:11.507Z,1004.12
2017-02-17T02:17:11.610Z,1004.09
2017-02-17T02:18:11.511Z,1004.04
2017-02-17T02:19:11.535Z,1004.02
2017-02-17T02:20:11.569Z,1004.03
2017-02-17T02:21:11.799Z,1004.09
2017-02-17T02:22:11.820Z,1004.19
2017-02-17T02:23:11.647Z,1004.24
2017-02-17T02:24:11.672Z,1004.31
2017-02-17T02:25:11.706Z,1004.26
2017-02-17T02:26:11.741Z,1004.24
2017-02-17T02:27:11.929Z,1004.19
2017-02-17T02:28:12.082Z,1004.18
2017-02-17T02:29:12.027Z,1004.14
2017-02-17T02:30:12.134Z,1004.06
2017-02-17T02:31:12.090Z,1004.02
2017-02-17T02:32:12.191Z,1004.07
2017-02-17T02:33:11.931Z,1004.03
2017-02-17T02:34:11.945Z,1004
2017-02-17T02:35:12.270Z,1003.99
2017-02-17T02:36:12.225Z,1004
2017-02-17T02:37:12.029Z,1004.03
2017-02-17T02:38:12.058Z,1004.06
2017-02-17T02:39:12.080Z,1004.03
2017-02-17T02:40:12.273Z,1004.04
2017-02-17T02:41:12.257Z,1004.09
2017-02-17T02:42:12.439Z,1004.07
2017-02-17T02:43:12.192Z,1004.06
2017-02-17T02:44:12.220Z,1004.05
2017-02-17T02:45:12.245Z,1004.03
2017-02-17T02:46:12.508Z,1004.04
2017-02-17T02:47:12.495Z,1004.07
2017-02-17T02:48:12.326Z,1004.05
2017-02-17T02:49:12.350Z,1004.06
2017-02-17T02:50:12.410Z,1004.06
2017-02-17T02:51:12.696Z,1004.07
2017-02-17T02:52:12.436Z,1004.07
2017-02-17T02:53:12.748Z,1004.03
2017-02-17T02:54:12.762Z,1004.02
2017-02-17T02:55:12.688Z,1004.01
2017-02-17T02:56:12.596Z,1003.98
2017-02-17T02:57:12.874Z,1003.98
2017-02-17T02:58:12.878Z,1003.95
2017-02-17T02:59:12.621Z,1003.92
2017-02-17T03:00:12.646Z,1003.91
2017-02-17T03:01:12.683Z,1003.91
2017-02-17T03:02:12.801Z,1003.87
2017-02-17T03:03:13.029Z,1003.83
2017-02-17T03:04:12.764Z,1003.88
2017-02-17T03:05:13.065Z,1003.89
2017-02-17T03:06:12.892Z,1003.89
2017-02-17T03:07:12.844Z,1003.91
2017-02-17T03:08:12.869Z,1003.91
2017-02-17T03:09:12.893Z,1003.9
2017-02-17T03:10:13.243Z,1003.95
2017-02-17T03:11:13.092Z,1003.93
2017-02-17T03:12:13.291Z,1003.89
2017-02-17T03:13:13.004Z,1003.95
2017-02-17T03:14:13.034Z,1003.94
2017-02-17T03:15:13.362Z,1003.92
2017-02-17T03:16:13.409Z,1003.92
2017-02-17T03:17:13.416Z,1003.89
2017-02-17T03:18:13.140Z,1003.93
2017-02-17T03:19:13.170Z,1003.94
2017-02-17T03:20:13.194Z,1003.93
2017-02-17T03:21:13.414Z,1003.92
2017-02-17T03:22:13.450Z,1003.9
2017-02-17T03:23:13.465Z,1003.95
2017-02-17T03:24:13.303Z,1003.94
2017-02-17T03:25:13.327Z,1003.93
2017-02-17T03:26:13.650Z,1003.9
2017-02-17T03:27:13.692Z,1003.92
2017-02-17T03:28:13.728Z,1003.85
2017-02-17T03:29:13.435Z,1003.81
2017-02-17T03:30:13.468Z,1003.77
2017-02-17T03:31:13.494Z,1003.79
2017-02-17T03:32:13.762Z,1003.74
2017-02-17T03:33:13.547Z,1003.76
2017-02-17T03:34:13.570Z,1003.82
2017-02-17T03:35:13.926Z,1003.82
2017-02-17T03:36:13.912Z,1003.81
2017-02-17T03:37:13.649Z,1003.78
2017-02-17T03:38:13.679Z,1003.76
2017-02-17T03:39:13.707Z,1003.78
2017-02-17T03:40:14.047Z,1003.75
2017-02-17T03:41:13.940Z,1003.76
2017-02-17T03:42:13.904Z,1003.71
2017-02-17T03:43:13.810Z,1003.66
2017-02-17T03:44:13.843Z,1003.66
2017-02-17T03:45:14.041Z,1003.69
2017-02-17T03:46:14.070Z,1003.63
2017-02-17T03:47:14.092Z,1003.55
2017-02-17T03:48:13.948Z,1003.49
2017-02-17T03:49:13.978Z,1003.47
2017-02-17T03:50:14.005Z,1003.46
2017-02-17T03:51:14.345Z,1003.42
2017-02-17T03:52:14.355Z,1003.43
2017-02-17T03:53:14.257Z,1003.34
2017-02-17T03:54:14.113Z,1003.33
2017-02-17T03:55:14.143Z,1003.28
2017-02-17T03:56:14.169Z,1003.26
2017-02-17T03:57:14.192Z,1003.25
2017-02-17T03:58:14.327Z,1003.21
2017-02-17T03:59:14.330Z,1003.19
2017-02-17T04:00:14.270Z,1003.14
2017-02-17T04:01:14.306Z,1003.08
2017-02-17T04:02:14.331Z,1003.12
2017-02-17T04:03:14.661Z,1003.11
2017-02-17T04:04:14.548Z,1003.09
2017-02-17T04:05:14.408Z,1003.04
2017-02-17T04:06:14.441Z,1003.03
2017-02-17T04:07:14.604Z,1003.03
2017-02-17T04:08:14.734Z,1003
2017-02-17T04:09:14.545Z,1003.01
2017-02-17T04:10:14.659Z,1003.03
2017-02-17T04:11:14.722Z,1003.1
2017-02-17T04:12:14.591Z,1003.17
2017-02-17T04:13:14.629Z,1003.12
2017-02-17T04:14:14.815Z,1003.14
2017-02-17T04:15:14.679Z,1003.16
2017-02-17T04:16:15.145Z,1003.14
2017-02-17T04:17:14.729Z,1003.21
2017-02-17T04:18:14.761Z,1003.26
2017-02-17T04:19:14.789Z,1003.32
2017-02-17T04:20:14.814Z,1003.41
2017-02-17T04:21:15.093Z,1003.41
2017-02-17T04:22:14.883Z,1003.46
2017-02-17T04:23:14.896Z,1003.47
2017-02-17T04:24:15.157Z,1003.45
2017-02-17T04:25:14.948Z,1003.49
2017-02-17T04:26:15.229Z,1003.5
2017-02-17T04:27:15.007Z,1003.5
2017-02-17T04:28:15.024Z,1003.44
2017-02-17T04:29:15.060Z,1003.45
2017-02-17T04:30:15.158Z,1003.43
2017-02-17T04:31:15.470Z,1003.47
2017-02-17T04:32:15.140Z,1003.52
2017-02-17T04:33:15.168Z,1003.54
2017-02-17T04:34:15.238Z,1003.53
2017-02-17T04:35:15.219Z,1003.46
2017-02-17T04:36:15.504Z,1003.48
2017-02-17T04:37:15.275Z,1003.47
2017-02-17T04:38:15.395Z,1003.46
2017-02-17T04:39:15.404Z,1003.53
2017-02-17T04:40:15.359Z,1003.5
2017-02-17T04:41:15.624Z,1003.51
2017-02-17T04:42:15.565Z,1003.54
2017-02-17T04:43:15.430Z,1003.54
2017-02-17T04:44:15.464Z,1003.48
2017-02-17T04:45:15.492Z,1003.52
2017-02-17T04:46:15.763Z,1003.53
2017-02-17T04:47:15.543Z,1003.53
2017-02-17T04:48:15.566Z,1003.52
2017-02-17T04:49:15.595Z,1003.5
2017-02-17T04:50:15.624Z,1003.49
2017-02-17T04:51:15.653Z,1003.5
2017-02-17T04:52:15.684Z,1003.49
2017-02-17T04:53:15.707Z,1003.44
2017-02-17T04:54:16.002Z,1003.48
2017-02-17T04:55:15.761Z,1003.49
2017-02-17T04:56:15.788Z,1003.52
2017-02-17T04:57:15.810Z,1003.52
2017-02-17T04:58:15.842Z,1003.5
2017-02-17T04:59:15.933Z,1003.48
2017-02-17T05:00:15.896Z,1003.47
2017-02-17T05:01:15.922Z,1003.49
2017-02-17T05:02:15.944Z,1003.5
2017-02-17T05:03:16.101Z,1003.51
2017-02-17T05:04:16.000Z,1003.49
2017-02-17T05:05:16.030Z,1003.48
2017-02-17T05:06:16.244Z,1003.55
2017-02-17T05:07:16.080Z,1003.53
2017-02-17T05:08:16.334Z,1003.54
2017-02-17T05:09:16.134Z,1003.58
2017-02-17T05:10:16.163Z,1003.6
2017-02-17T05:11:16.190Z,1003.58
2017-02-17T05:12:16.377Z,1003.56
2017-02-17T05:13:16.241Z,1003.54
2017-02-17T05:14:16.472Z,1003.52
2017-02-17T05:15:16.299Z,1003.47
2017-02-17T05:16:16.330Z,1003.43
2017-02-17T05:17:16.604Z,1003.38
2017-02-17T05:18:16.381Z,1003.42
2017-02-17T05:19:16.403Z,1003.39
2017-02-17T05:20:16.434Z,1003.44
2017-02-17T05:21:16.613Z,1003.45
2017-02-17T05:22:16.657Z,1003.44
2017-02-17T05:23:16.668Z,1003.44
2017-02-17T05:24:16.537Z,1003.39
2017-02-17T05:25:16.567Z,1003.39
2017-02-17T05:26:16.598Z,1003.34
2017-02-17T05:27:16.875Z,1003.36
2017-02-17T05:28:16.892Z,1003.34
2017-02-17T05:29:16.677Z,1003.29
2017-02-17T05:30:16.698Z,1003.32
2017-02-17T05:31:16.731Z,1003.31
2017-02-17T05:32:16.759Z,1003.31
2017-02-17T05:33:16.785Z,1003.27
2017-02-17T05:34:16.808Z,1003.26
2017-02-17T05:35:17.037Z,1003.27
2017-02-17T05:36:17.145Z,1003.25
2017-02-17T05:37:16.893Z,1003.27
2017-02-17T05:38:16.919Z,1003.32
2017-02-17T05:39:16.947Z,1003.28
2017-02-17T05:40:16.974Z,1003.32
2017-02-17T05:41:17.088Z,1003.33
2017-02-17T05:42:17.026Z,1003.3
2017-02-17T05:43:17.051Z,1003.35
2017-02-17T05:44:17.080Z,1003.27
2017-02-17T05:45:17.104Z,1003.33
2017-02-17T05:46:17.341Z,1003.37
2017-02-17T05:47:17.156Z,1003.37
2017-02-17T05:48:17.189Z,1003.33
2017-02-17T05:49:17.378Z,1003.31
2017-02-17T05:50:17.526Z,1003.36
2017-02-17T05:51:17.270Z,1003.33
2017-02-17T05:52:17.290Z,1003.34
2017-02-17T05:53:17.319Z,1003.35
2017-02-17T05:54:17.348Z,1003.33
2017-02-17T05:55:17.377Z,1003.37
2017-02-17T05:56:17.402Z,1003.35
2017-02-17T05:57:17.669Z,1003.39
2017-02-17T05:58:17.460Z,1003.39
2017-02-17T05:59:17.509Z,1003.36
2017-02-17T06:00:17.507Z,1003.38
2017-02-17T06:01:17.540Z,1003.36
2017-02-17T06:02:17.566Z,1003.43
2017-02-17T06:03:17.873Z,1003.34
2017-02-17T06:04:17.621Z,1003.35
2017-02-17T06:05:17.648Z,1003.31
2017-02-17T06:06:17.673Z,1003.3
2017-02-17T06:07:17.703Z,1003.28
2017-02-17T06:08:17.897Z,1003.3
2017-02-17T06:09:17.755Z,1003.28
2017-02-17T06:10:17.784Z,1003.26
2017-02-17T06:11:17.991Z,1003.23
2017-02-17T06:12:18.006Z,1003.28
2017-02-17T06:13:18.056Z,1003.29
2017-02-17T06:14:17.895Z,1003.3
2017-02-17T06:15:18.184Z,1003.33
2017-02-17T06:16:17.944Z,1003.37
2017-02-17T06:17:18.022Z,1003.32
2017-02-17T06:18:17.998Z,1003.34
2017-02-17T06:19:18.291Z,1003.37
2017-02-17T06:20:18.344Z,1003.39
2017-02-17T06:21:18.081Z,1003.42
2017-02-17T06:22:18.176Z,1003.44
2017-02-17T06:23:18.154Z,1003.39
2017-02-17T06:24:18.165Z,1003.43
2017-02-17T06:25:18.191Z,1003.42
2017-02-17T06:26:18.239Z,1003.45
2017-02-17T06:27:18.533Z,1003.44
2017-02-17T06:28:18.268Z,1003.45
2017-02-17T06:29:18.297Z,1003.48
2017-02-17T06:30:18.326Z,1003.48
2017-02-17T06:31:18.351Z,1003.51
2017-02-17T06:32:18.678Z,1003.55
2017-02-17T06:33:18.734Z,1003.63
2017-02-17T06:34:18.737Z,1003.67
2017-02-17T06:35:18.457Z,1003.64
2017-02-17T06:36:18.491Z,1003.63
2017-02-17T06:37:18.520Z,1003.64
2017-02-17T06:38:18.864Z,1003.64
2017-02-17T06:39:18.816Z,1003.64
2017-02-17T06:40:18.600Z,1003.69
2017-02-17T06:41:18.628Z,1003.64
2017-02-17T06:42:18.650Z,1003.64
2017-02-17T06:43:18.849Z,1003.62
2017-02-17T06:44:18.885Z,1003.63
2017-02-17T06:45:19.015Z,1003.65
2017-02-17T06:46:18.764Z,1003.64
2017-02-17T06:47:18.788Z,1003.68
2017-02-17T06:48:18.815Z,1003.66
2017-02-17T06:49:18.902Z,1003.73
2017-02-17T06:50:19.012Z,1003.73
2017-02-17T06:51:18.898Z,1003.71
2017-02-17T06:52:18.924Z,1003.81
2017-02-17T06:53:18.958Z,1003.78
2017-02-17T06:54:19.207Z,1003.81
2017-02-17T06:55:19.306Z,1003.83
2017-02-17T06:56:19.229Z,1003.85
2017-02-17T06:57:19.062Z,1003.8
2017-02-17T06:58:19.086Z,1003.82
2017-02-17T06:59:19.118Z,1003.84
2017-02-17T07:00:19.441Z,1003.82
2017-02-17T07:01:19.373Z,1003.81
2017-02-17T07:02:19.203Z,1003.85
2017-02-17T07:03:19.231Z,1003.85
2017-02-17T07:04:19.253Z,1003.89
2017-02-17T07:05:19.538Z,1003.9
2017-02-17T07:06:19.639Z,1003.94
2017-02-17T07:07:19.753Z,1003.92
2017-02-17T07:08:19.364Z,1003.91
2017-02-17T07:09:19.393Z,1003.95
2017-02-17T07:10:19.502Z,1003.92
2017-02-17T07:11:19.445Z,1003.94
2017-02-17T07:12:19.967Z,1003.96
2017-02-17T07:13:19.496Z,1003.98
2017-02-17T07:14:19.531Z,1003.97
2017-02-17T07:15:19.556Z,1003.97
2017-02-17T07:16:19.789Z,1003.92
2017-02-17T07:17:19.850Z,1003.92
2017-02-17T07:18:19.643Z,1003.93
2017-02-17T07:19:19.666Z,1003.98
2017-02-17T07:20:19.695Z,1003.97
2017-02-17T07:21:20.042Z,1003.91
2017-02-17T07:22:20.028Z,1003.97
2017-02-17T07:23:20.006Z,1004
2017-02-17T07:24:19.797Z,1004.01
2017-02-17T07:25:19.898Z,1004.03
2017-02-17T07:26:19.909Z,1004
2017-02-17T07:27:20.194Z,1004.03
2017-02-17T07:28:20.065Z,1004.03
2017-02-17T07:29:19.942Z,1003.97
2017-02-17T07:30:19.967Z,1004
2017-02-17T07:31:19.991Z,1003.99
2017-02-17T07:32:20.315Z,1003.99
2017-02-17T07:33:20.191Z,1004.02
2017-02-17T07:34:20.330Z,1004.07
2017-02-17T07:35:20.097Z,1004.02
2017-02-17T07:36:20.132Z,1004.05
2017-02-17T07:37:20.164Z,1004.03
2017-02-17T07:38:20.357Z,1004.04
2017-02-17T07:39:20.308Z,1004.03
2017-02-17T07:40:20.237Z,1004.02
2017-02-17T07:41:20.262Z,1004.03
2017-02-17T07:42:20.300Z,1003.99
2017-02-17T07:43:20.321Z,1004
2017-02-17T07:44:20.357Z,1004.02
2017-02-17T07:45:20.378Z,1004.03
2017-02-17T07:46:20.397Z,1004.04
2017-02-17T07:47:20.689Z,1004.03
2017-02-17T07:48:20.670Z,1004.04
2017-02-17T07:49:20.485Z,1004.05
2017-02-17T07:50:20.511Z,1004.06
2017-02-17T07:51:20.537Z,1004.06
2017-02-17T07:52:20.713Z,1004.02
2017-02-17T07:53:20.841Z,1004.02
2017-02-17T07:54:20.620Z,1004
2017-02-17T07:55:20.648Z,1004.06
2017-02-17T07:56:20.672Z,1004.05
2017-02-17T07:57:20.891Z,1004
2017-02-17T07:58:21.001Z,1004
2017-02-17T07:59:20.753Z,1004.03
2017-02-17T08:00:21.071Z,1003.99
2017-02-17T08:01:20.814Z,1004.04
2017-02-17T08:02:21.129Z,1004.05
2017-02-17T08:03:21.109Z,1004.02
2017-02-17T08:04:21.188Z,1004.01
2017-02-17T08:05:20.921Z,1003.99
2017-02-17T08:06:20.949Z,1004
2017-02-17T08:07:20.981Z,1004.01
2017-02-17T08:08:21.162Z,1003.99
2017-02-17T08:09:21.191Z,1003.95
2017-02-17T08:10:21.051Z,1003.98
2017-02-17T08:11:21.082Z,1003.95
2017-02-17T08:12:21.110Z,1003.94
2017-02-17T08:13:21.338Z,1003.98
2017-02-17T08:14:21.375Z,1003.98
2017-02-17T08:15:21.385Z,1003.99
2017-02-17T08:16:21.220Z,1003.95
2017-02-17T08:17:21.245Z,1003.98
2017-02-17T08:18:21.270Z,1003.95
2017-02-17T08:19:21.493Z,1003.9
2017-02-17T08:20:21.603Z,1003.97
2017-02-17T08:21:21.359Z,1003.96
2017-02-17T08:22:21.589Z,1003.97
2017-02-17T08:23:21.615Z,1003.97
2017-02-17T08:24:21.439Z,1003.94
2017-02-17T08:25:21.458Z,1003.97
2017-02-17T08:26:21.503Z,1003.96
2017-02-17T08:27:21.781Z,1004.01
2017-02-17T08:28:21.724Z,1003.98
2017-02-17T08:29:21.769Z,1004.02
2017-02-17T08:30:21.595Z,1004
2017-02-17T08:31:21.623Z,1003.98
2017-02-17T08:32:21.875Z,1004.04
2017-02-17T08:33:21.911Z,1004
2017-02-17T08:34:22.035Z,1004.06
2017-02-17T08:35:21.740Z,1004.04
2017-02-17T08:36:21.764Z,1004.01
2017-02-17T08:37:21.791Z,1004.01
2017-02-17T08:38:22.295Z,1004.03
2017-02-17T08:39:22.149Z,1003.98
2017-02-17T08:40:21.873Z,1003.97
2017-02-17T08:41:21.896Z,1004
2017-02-17T08:42:21.924Z,1003.97
2017-02-17T08:43:22.476Z,1003.93
2017-02-17T08:44:22.259Z,1003.96
2017-02-17T08:45:22.003Z,1003.9
2017-02-17T08:46:22.067Z,1003.95
2017-02-17T08:47:22.347Z,1003.98
2017-02-17T08:48:22.519Z,1004.01
2017-02-17T08:49:22.428Z,1003.98
2017-02-17T08:50:22.451Z,1003.97
2017-02-17T08:51:22.171Z,1003.98
2017-02-17T08:52:22.200Z,1003.97
2017-02-17T08:53:22.477Z,1004.03
2017-02-17T08:54:22.253Z,1003.97
2017-02-17T08:55:22.454Z,1003.98
2017-02-17T08:56:22.462Z,1003.93
2017-02-17T08:57:22.335Z,1003.97
2017-02-17T08:58:22.614Z,1004.02
2017-02-17T08:59:22.388Z,1004.01
2017-02-17T09:00:22.717Z,1004
2017-02-17T09:01:22.744Z,1004
2017-02-17T09:02:22.471Z,1004.04
2017-02-17T09:03:22.751Z,1004.03
2017-02-17T09:04:22.521Z,1004.01
2017-02-17T09:05:22.853Z,1004.08
2017-02-17T09:06:22.721Z,1004.08
2017-02-17T09:07:22.804Z,1004.18
2017-02-17T09:08:22.886Z,1004.12
2017-02-17T09:09:22.669Z,1004.14
2017-02-17T09:10:22.686Z,1004.13
2017-02-17T09:11:23.042Z,1004.19
2017-02-17T09:12:22.967Z,1004.14
2017-02-17T09:13:22.777Z,1004.14
2017-02-17T09:14:22.807Z,1004.14
2017-02-17T09:15:22.829Z,1004.2
2017-02-17T09:16:22.930Z,1004.17
2017-02-17T09:17:23.171Z,1004.16
2017-02-17T09:18:23.222Z,1004.14
2017-02-17T09:19:22.939Z,1004.11
2017-02-17T09:20:22.966Z,1004.27
2017-02-17T09:21:22.994Z,1004.17
2017-02-17T09:22:23.309Z,1004.16
2017-02-17T09:23:23.254Z,1004.25
2017-02-17T09:24:23.076Z,1004.22
2017-02-17T09:25:23.105Z,1004.19
2017-02-17T09:26:23.130Z,1004.16
2017-02-17T09:27:23.467Z,1004.18
2017-02-17T09:28:23.491Z,1004.18
2017-02-17T09:29:23.275Z,1004.15
2017-02-17T09:30:23.246Z,1004.17
2017-02-17T09:31:23.270Z,1004.15
2017-02-17T09:32:23.293Z,1004.16
2017-02-17T09:33:23.536Z,1004.13
2017-02-17T09:34:23.431Z,1004.16
2017-02-17T09:35:23.382Z,1004.16
2017-02-17T09:36:23.699Z,1004.15
2017-02-17T09:37:23.654Z,1004.16
2017-02-17T09:38:23.463Z,1004.14
2017-02-17T09:39:23.512Z,1004.11
2017-02-17T09:40:23.709Z,1004.16
2017-02-17T09:41:23.875Z,1004.2
2017-02-17T09:42:23.647Z,1004.19
2017-02-17T09:43:23.604Z,1004.17
2017-02-17T09:44:23.627Z,1004.21
2017-02-17T09:45:23.677Z,1004.16
2017-02-17T09:46:23.700Z,1004.16
2017-02-17T09:47:24.003Z,1004.15
2017-02-17T09:48:23.877Z,1004.22
2017-02-17T09:49:23.763Z,1004.24
2017-02-17T09:50:23.792Z,1004.22
2017-02-17T09:51:23.822Z,1004.26
2017-02-17T09:52:24.021Z,1004.29
2017-02-17T09:53:24.034Z,1004.25
2017-02-17T09:54:23.900Z,1004.35
2017-02-17T09:55:23.932Z,1004.31
2017-02-17T09:56:23.959Z,1004.37
2017-02-17T09:57:24.217Z,1004.33
2017-02-17T09:58:24.156Z,1004.35
2017-02-17T09:59:24.473Z,1004.31
2017-02-17T10:00:24.068Z,1004.28
2017-02-17T10:01:24.097Z,1004.31
2017-02-17T10:02:24.120Z,1004.33
2017-02-17T10:03:24.301Z,1004.32
2017-02-17T10:04:24.424Z,1004.33
2017-02-17T10:05:24.200Z,1004.41
2017-02-17T10:06:24.237Z,1004.36
2017-02-17T10:07:24.255Z,1004.39
2017-02-17T10:08:24.584Z,1004.42
2017-02-17T10:09:24.862Z,1004.4
2017-02-17T10:10:24.645Z,1004.46
2017-02-17T10:11:24.367Z,1004.44
2017-02-17T10:12:24.402Z,1004.44
2017-02-17T10:13:24.602Z,1004.43
2017-02-17T10:14:25.068Z,1004.48
2017-02-17T10:15:24.477Z,1004.51
2017-02-17T10:16:24.509Z,1004.54
2017-02-17T10:17:24.529Z,1004.47
2017-02-17T10:18:24.557Z,1004.48
2017-02-17T10:19:24.884Z,1004.55
2017-02-17T10:20:24.612Z,1004.52
2017-02-17T10:21:24.867Z,1004.54
2017-02-17T10:22:24.668Z,1004.58
2017-02-17T10:23:24.695Z,1004.6
2017-02-17T10:24:24.727Z,1004.58
2017-02-17T10:25:24.949Z,1004.56
2017-02-17T10:26:24.816Z,1004.53
2017-02-17T10:27:24.808Z,1004.55
2017-02-17T10:28:24.839Z,1004.64
2017-02-17T10:29:24.862Z,1004.6
2017-02-17T10:30:25.190Z,1004.59
2017-02-17T10:31:25.126Z,1004.72
2017-02-17T10:32:24.939Z,1004.65
2017-02-17T10:33:24.973Z,1004.72
2017-02-17T10:34:25.005Z,1004.68
2017-02-17T10:35:25.219Z,1004.6
2017-02-17T10:36:25.369Z,1004.54
2017-02-17T10:37:25.218Z,1004.58
2017-02-17T10:38:25.101Z,1004.54
2017-02-17T10:39:25.137Z,1004.49
2017-02-17T10:40:25.162Z,1004.58
2017-02-17T10:41:25.399Z,1004.6
2017-02-17T10:42:25.221Z,1004.63
2017-02-17T10:43:25.445Z,1004.65
2017-02-17T10:44:25.272Z,1004.68
2017-02-17T10:45:25.362Z,1004.63
2017-02-17T10:46:25.323Z,1004.56
2017-02-17T10:47:25.666Z,1004.64
2017-02-17T10:48:25.590Z,1004.55
2017-02-17T10:49:25.404Z,1004.57
2017-02-17T10:50:25.435Z,1004.6
2017-02-17T10:51:25.467Z,1004.56
2017-02-17T10:52:25.774Z,1004.51
2017-02-17T10:53:25.517Z,1004.51
2017-02-17T10:54:25.542Z,1004.49
2017-02-17T10:55:25.647Z,1004.51
2017-02-17T10:56:25.871Z,1004.59
2017-02-17T10:57:25.633Z,1004.5
2017-02-17T10:58:25.655Z,1004.52
2017-02-17T10:59:25.683Z,1004.53
2017-02-17T11:00:25.983Z,1004.48
2017-02-17T11:01:25.735Z,1004.51
2017-02-17T11:02:25.767Z,1004.51
2017-02-17T11:03:26.031Z,1004.47
2017-02-17T11:04:25.821Z,1004.44
2017-02-17T11:05:25.939Z,1004.41
2017-02-17T11:06:25.875Z,1004.42
2017-02-17T11:07:26.054Z,1004.46
2017-02-17T11:08:25.929Z,1004.42
2017-02-17T11:09:25.952Z,1004.51
2017-02-17T11:10:25.986Z,1004.48
2017-02-17T11:11:26.323Z,1004.45
2017-02-17T11:12:26.174Z,1004.39
2017-02-17T11:13:26.064Z,1004.37
2017-02-17T11:14:26.089Z,1004.46
2017-02-17T11:15:26.169Z,1004.45
2017-02-17T11:16:26.348Z,1004.42
2017-02-17T11:17:26.274Z,1004.42
2017-02-17T11:18:26.208Z,1004.41
2017-02-17T11:19:26.395Z,1004.41
2017-02-17T11:20:26.456Z,1004.38
2017-02-17T11:21:26.553Z,1004.34
2017-02-17T11:22:26.307Z,1004.37
2017-02-17T11:23:26.344Z,1004.31
2017-02-17T11:24:26.369Z,1004.31
2017-02-17T11:25:26.397Z,1004.28
2017-02-17T11:26:26.419Z,1004.24
2017-02-17T11:27:26.597Z,1004.31
2017-02-17T11:28:26.686Z,1004.27
2017-02-17T11:29:26.748Z,1004.24
2017-02-17T11:30:26.542Z,1004.27
2017-02-17T11:31:26.557Z,1004.26
2017-02-17T11:32:26.590Z,1004.24
2017-02-17T11:33:26.921Z,1004.28
2017-02-17T11:34:26.875Z,1004.27
2017-02-17T11:35:26.669Z,1004.25
2017-02-17T11:36:26.697Z,1004.17
2017-02-17T11:37:26.728Z,1004.2
2017-02-17T11:38:27.042Z,1004.23
2017-02-17T11:39:26.891Z,1004.22
2017-02-17T11:40:26.803Z,1004.17
2017-02-17T11:41:27.029Z,1004.2
2017-02-17T11:42:26.866Z,1004.19
2017-02-17T11:43:26.887Z,1004.2
2017-02-17T11:44:26.913Z,1004.2
2017-02-17T11:45:26.943Z,1004.22
2017-02-17T11:46:27.044Z,1004.2
2017-02-17T11:47:27.195Z,1004.25
2017-02-17T11:48:27.030Z,1004.24
2017-02-17T11:49:27.271Z,1004.17
2017-02-17T11:50:27.312Z,1004.14
2017-02-17T11:51:27.111Z,1004.15
2017-02-17T11:52:27.141Z,1004.13
2017-02-17T11:53:27.173Z,1004.06
2017-02-17T11:54:27.466Z,1004.04
2017-02-17T11:55:27.222Z,1004.09
2017-02-17T11:56:27.465Z,1004.08
2017-02-17T11:57:27.555Z,1004.1
2017-02-17T11:58:27.477Z,1004.11
2017-02-17T11:59:27.522Z,1004.13
2017-02-17T12:00:27.586Z,1004.1
2017-02-17T12:01:27.673Z,1004.1
2017-02-17T12:02:27.413Z,1004.11
2017-02-17T12:03:27.440Z,1004.07
2017-02-17T12:04:27.599Z,1004.06
2017-02-17T12:05:27.745Z,1004.09
2017-02-17T12:06:27.735Z,1004.08
2017-02-17T12:07:27.798Z,1004.12
2017-02-17T12:08:27.574Z,1004.1